Time;durP1;ratioP1;P1;durP2;ratioP2;P2;SDS_P1;SDS_P2;PMS_P1;PMS_P2;Temp;Humidity;BMP_temperature;BMP_pressure;BME280_temperature;BME280_humidity;BME280_pressure;Samples;Min_cycle;Max_cycle;Signal;HPM_P1;HPM_P2
2024/01/19 00:00:58;;;;;;;;;9.20;8.20;;;;;-1.76;85.39;99526.75;5097236;28;8816;-57
2024/01/19 00:03:26;;;;;;;;;3.00;1.00;;;;;-1.79;85.58;99526.00;5115970;28;8932;-56
2024/01/19 00:05:54;;;;;;;;;8.60;8.60;;;;;-1.83;85.88;99532.25;5116079;28;8816;-59
2024/01/19 00:08:21;;;;;;;;;4.40;4.40;;;;;-1.84;85.68;99538.34;5114984;28;9493;-58
2024/01/19 00:10:50;;;;;;;;;5.20;4.00;;;;;-1.84;86.33;99541.84;5115541;28;8828;-59
2024/01/19 00:13:17;;;;;;;;;6.80;6.60;;;;;-1.84;86.01;99549.66;5103968;28;9545;-59
2024/01/19 00:15:45;;;;;;;;;5.60;4.80;;;;;-1.83;85.86;99553.13;5089298;28;8827;-58
2024/01/19 00:18:13;;;;;;;;;6.20;6.20;;;;;-1.83;86.08;99560.97;5074871;28;8828;-58
2024/01/19 00:20:41;;;;;;;;;9.00;7.40;;;;;-1.82;86.19;99557.44;5075085;28;8820;-58
2024/01/19 00:23:08;;;;;;;;;6.00;4.00;;;;;-1.87;85.78;99561.97;5075313;28;8891;-57
2024/01/19 00:25:37;;;;;;;;;6.20;6.00;;;;;-1.92;86.26;99562.13;5075636;28;8943;-59
2024/01/19 00:28:05;;;;;;;;;1.00;1.00;;;;;-1.97;85.90;99571.03;5075818;28;8866;-59
2024/01/19 00:30:33;;;;;;;;;10.20;8.20;;;;;-2.03;86.31;99569.50;5077892;28;8851;-57
2024/01/19 00:33:01;;;;;;;;;3.60;3.60;;;;;-2.01;86.02;99577.25;5077889;28;8828;-56
2024/01/19 00:35:29;;;;;;;;;7.00;6.60;;;;;-2.02;85.90;99568.59;5077273;28;8901;-57
2024/01/19 00:37:56;;;;;;;;;7.40;7.40;;;;;-2.02;85.88;99567.72;5078092;28;8914;-57
2024/01/19 00:40:24;;;;;;;;;7.00;6.80;;;;;-2.02;85.82;99565.13;5078055;28;8851;-56
2024/01/19 00:42:52;;;;;;;;;4.00;4.00;;;;;-1.98;86.06;99571.94;5077782;28;8828;-56
2024/01/19 00:45:19;;;;;;;;;7.40;7.40;;;;;-1.94;86.18;99573.50;5077837;28;8820;-57
2024/01/19 00:47:47;;;;;;;;;10.00;9.20;;;;;-1.91;86.12;99573.44;5078754;28;8875;-56
2024/01/19 00:50:15;;;;;;;;;4.40;3.80;;;;;-1.90;85.96;99575.97;5092514;28;9451;-57
2024/01/19 00:52:43;;;;;;;;;9.00;9.00;;;;;-1.86;85.46;99587.13;5097067;28;8903;-57
2024/01/19 00:55:11;;;;;;;;;7.00;7.00;;;;;-1.85;85.73;99584.47;5097008;28;8813;-57
2024/01/19 00:57:39;;;;;;;;;1.80;0.60;;;;;-1.84;85.84;99586.19;5097038;28;8892;-59
2024/01/19 01:00:07;;;;;;;;;3.00;3.00;;;;;-1.82;85.70;99596.56;5097459;28;8906;-57
2024/01/19 01:02:34;;;;;;;;;5.20;4.00;;;;;-1.81;85.73;99593.88;5095934;28;8836;-58
2024/01/19 01:05:02;;;;;;;;;7.40;5.60;;;;;-1.81;86.06;99588.66;5097262;28;8822;-56
2024/01/19 01:07:30;;;;;;;;;1.80;1.60;;;;;-1.80;85.74;99593.00;5081964;28;8864;-59
2024/01/19 01:09:58;;;;;;;;;3.60;3.00;;;;;-1.79;85.67;99594.69;5097318;28;8826;-58
2024/01/19 01:12:25;;;;;;;;;6.80;5.20;;;;;-1.79;85.88;99593.84;5097746;28;8834;-56
2024/01/19 01:14:53;;;;;;;;;6.20;6.00;;;;;-1.81;85.77;99586.06;5097975;28;8814;-58
2024/01/19 01:17:21;;;;;;;;;3.40;3.00;;;;;-1.82;85.70;99599.19;5096334;28;8841;-57
2024/01/19 01:19:49;;;;;;;;;4.00;4.00;;;;;-1.83;85.74;99602.69;5097645;28;8895;-57
2024/01/19 01:22:17;;;;;;;;;5.20;5.20;;;;;-1.82;85.89;99612.22;5096182;28;8815;-57
2024/01/19 01:24:45;;;;;;;;;4.00;3.60;;;;;-1.83;85.51;99613.97;5100384;28;8811;-57
2024/01/19 01:27:13;;;;;;;;;3.40;2.20;;;;;-1.85;85.69;99614.91;5115775;28;8808;-57
2024/01/19 01:29:40;;;;;;;;;4.00;1.00;;;;;-1.88;85.79;99615.03;5112856;28;8821;-57
2024/01/19 01:32:08;;;;;;;;;3.60;3.60;;;;;-1.90;85.93;99619.47;5097485;28;8856;-58
2024/01/19 01:34:36;;;;;;;;;3.80;3.80;;;;;-1.92;85.92;99626.47;5096138;28;8829;-57
2024/01/19 01:37:04;;;;;;;;;5.20;4.80;;;;;-1.94;85.71;99625.69;5095463;28;8826;-59
2024/01/19 01:39:32;;;;;;;;;4.00;4.00;;;;;-1.93;85.70;99637.81;5095865;28;8957;-57
2024/01/19 01:41:59;;;;;;;;;6.00;5.20;;;;;-1.93;85.62;99640.41;5092048;28;8804;-59
2024/01/19 01:44:27;;;;;;;;;0.20;0.00;;;;;-1.92;86.02;99642.13;5117431;28;8893;-57
2024/01/19 01:46:55;;;;;;;;;4.00;4.00;;;;;-1.91;85.52;99641.25;5117563;28;8913;-57
2024/01/19 01:49:22;;;;;;;;;11.00;9.40;;;;;-1.87;85.80;99637.59;5116468;28;8837;-57
2024/01/19 01:51:50;;;;;;;;;1.00;0.40;;;;;-1.84;86.19;99637.47;5116092;28;8812;-58
2024/01/19 01:54:18;;;;;;;;;3.80;2.80;;;;;-1.82;85.82;99641.75;5115852;28;8838;-56
2024/01/19 01:56:46;;;;;;;;;9.20;7.00;;;;;-1.78;85.18;99648.56;5116146;28;8901;-57
2024/01/19 01:59:14;;;;;;;;;5.20;4.00;;;;;-1.75;85.79;99652.84;5080063;28;8851;-57
2024/01/19 02:01:42;;;;;;;;;6.00;6.00;;;;;-1.73;85.42;99645.81;5076937;28;8842;-59
2024/01/19 02:04:11;;;;;;;;;4.40;4.40;;;;;-1.72;84.90;99652.72;5076698;28;9516;-59
2024/01/19 02:06:39;;;;;;;;;5.20;4.40;;;;;-1.72;85.48;99650.13;5076332;28;8828;-58
2024/01/19 02:09:08;;;;;;;;;3.80;3.80;;;;;-1.72;85.02;99644.91;5076759;28;8828;-59
2024/01/19 02:11:35;;;;;;;;;3.00;2.60;;;;;-1.72;85.38;99650.13;5076122;28;8832;-56
2024/01/19 02:14:05;;;;;;;;;1.80;1.00;;;;;-1.72;85.77;99645.75;5076811;28;8835;-57
2024/01/19 02:16:33;;;;;;;;;4.00;3.40;;;;;-1.71;85.47;99647.47;5078572;28;8848;-57
2024/01/19 02:19:01;;;;;;;;;3.00;3.00;;;;;-1.70;85.31;99656.13;5092613;28;8826;-59
2024/01/19 02:21:29;;;;;;;;;0.00;0.00;;;;;-1.71;85.30;99668.34;5096152;28;8840;-59
2024/01/19 02:23:57;;;;;;;;;2.20;1.00;;;;;-1.73;85.32;99674.50;5095950;28;9495;-57
2024/01/19 02:26:25;;;;;;;;;4.40;4.40;;;;;-1.74;85.49;99686.69;5093983;28;8873;-58
2024/01/19 02:28:53;;;;;;;;;4.40;4.00;;;;;-1.69;85.53;99683.91;5095177;28;8814;-59
2024/01/19 02:31:20;;;;;;;;;3.00;3.00;;;;;-1.64;85.12;99687.22;5095314;28;8822;-59
2024/01/19 02:33:48;;;;;;;;;2.20;1.80;;;;;-1.59;84.65;99685.31;5095010;28;8825;-56
2024/01/19 02:36:16;;;;;;;;;1.40;1.40;;;;;-1.53;85.62;99685.09;5096614;28;8850;-58
2024/01/19 02:38:43;;;;;;;;;4.00;4.00;;;;;-1.52;85.03;99676.38;5094843;28;8849;-58
2024/01/19 02:41:11;;;;;;;;;0.00;0.00;;;;;-1.53;84.86;99679.88;5099656;28;8844;-58
2024/01/19 02:43:39;;;;;;;;;3.00;3.00;;;;;-1.55;84.70;99673.84;5116983;28;8820;-57
2024/01/19 02:46:07;;;;;;;;;4.00;4.00;;;;;-1.59;84.95;99678.31;5109520;28;9471;-59
2024/01/19 02:48:34;;;;;;;;;3.40;3.00;;;;;-1.62;84.73;99690.63;5091346;28;8820;-59
2024/01/19 02:51:02;;;;;;;;;3.80;3.80;;;;;-1.65;84.66;99686.41;5075531;28;8828;-58
2024/01/19 02:53:30;;;;;;;;;1.40;1.40;;;;;-1.66;84.88;99691.66;5075518;28;8938;-59
2024/01/19 02:55:59;;;;;;;;;7.00;5.60;;;;;-1.68;84.25;99691.69;5075218;28;8828;-59
2024/01/19 02:58:27;;;;;;;;;6.00;5.20;;;;;-1.65;84.94;99688.13;5092447;28;8816;-59
2024/01/19 03:00:55;;;;;;;;;5.80;4.00;;;;;-1.64;85.12;99692.44;5115528;28;8846;-59
2024/01/19 03:03:23;;;;;;;;;3.60;3.20;;;;;-1.60;85.18;99699.28;5115420;28;8808;-59
2024/01/19 03:05:51;;;;;;;;;3.80;3.80;;;;;-1.57;84.68;99705.25;5101868;28;8831;-58
2024/01/19 03:08:19;;;;;;;;;4.80;3.80;;;;;-1.53;84.63;99712.03;5075234;28;8824;-59
2024/01/19 03:10:46;;;;;;;;;3.80;3.80;;;;;-1.46;84.60;99717.91;5076009;28;9017;-59
2024/01/19 03:13:14;;;;;;;;;3.00;3.00;;;;;-1.42;84.27;99709.94;5073848;28;8866;-59
2024/01/19 03:15:42;;;;;;;;;3.00;3.00;;;;;-1.40;84.24;99702.00;5075836;28;8816;-59
2024/01/19 03:18:09;;;;;;;;;3.00;3.00;;;;;-1.36;84.25;99708.84;5074160;28;8883;-58
2024/01/19 03:20:37;;;;;;;;;3.60;1.60;;;;;-1.34;84.15;99707.91;5075970;28;8894;-58
2024/01/19 03:23:05;;;;;;;;;2.60;2.60;;;;;-1.31;84.34;99709.53;5076121;28;8832;-59
2024/01/19 03:25:33;;;;;;;;;4.40;4.40;;;;;-1.32;84.27;99713.03;5074894;28;9527;-59
2024/01/19 03:28:01;;;;;;;;;3.20;3.20;;;;;-1.34;84.34;99720.09;5074314;28;8888;-58
2024/01/19 03:30:29;;;;;;;;;1.80;1.80;;;;;-1.35;83.90;99732.31;5075681;28;8856;-59
2024/01/19 03:32:57;;;;;;;;;3.80;3.80;;;;;-1.39;83.82;99735.03;5074469;28;8836;-59
2024/01/19 03:35:25;;;;;;;;;2.80;1.80;;;;;-1.43;84.47;99738.69;5087526;28;8798;-58
2024/01/19 03:37:52;;;;;;;;;2.40;2.40;;;;;-1.45;84.03;99741.34;5095300;28;8899;-59
2024/01/19 03:40:20;;;;;;;;;3.00;3.00;;;;;-1.44;84.06;99753.47;5092225;28;8817;-59
2024/01/19 03:42:48;;;;;;;;;3.00;1.40;;;;;-1.44;84.44;99757.88;5094724;28;8837;-59
2024/01/19 03:45:16;;;;;;;;;6.60;6.60;;;;;-1.47;84.75;99748.38;5096770;28;9655;-59
2024/01/19 03:47:43;;;;;;;;;9.60;5.40;;;;;-1.47;84.63;99743.16;5095011;28;9514;-59
2024/01/19 03:50:11;;;;;;;;;5.20;5.20;;;;;-1.44;84.63;99747.44;5094205;28;8827;-58
2024/01/19 03:52:39;;;;;;;;;6.40;4.00;;;;;-1.43;84.36;99744.78;5103393;28;8804;-59
2024/01/19 03:55:07;;;;;;;;;1.00;1.00;;;;;-1.41;84.53;99736.88;5115644;28;8840;-58
2024/01/19 03:57:34;;;;;;;;;4.80;4.80;;;;;-1.37;84.65;99738.47;5089593;28;9522;-58
2024/01/19 04:00:05;;;;;;;;;7.00;6.20;;;;;-1.34;84.26;99739.22;5074579;28;8850;-58
2024/01/19 04:02:33;;;;;;;;;1.40;1.40;;;;;-1.29;84.85;99741.66;5074707;28;9478;-59
2024/01/19 04:05:01;;;;;;;;;3.60;3.40;;;;;-1.27;84.21;99745.06;5078635;28;9498;-58
2024/01/19 04:07:28;;;;;;;;;4.80;4.80;;;;;-1.26;83.73;99737.19;5077664;28;8844;-57
2024/01/19 04:13:06;;;;;;;;;13.80;12.00;;;;;-1.22;83.73;99737.94;5117613;28;8887;-58
2024/01/19 04:15:33;;;;;;;;;6.80;6.00;;;;;-1.19;83.63;99737.81;5077960;28;8828;-56
2024/01/19 04:18:01;;;;;;;;;8.40;8.40;;;;;-1.17;83.71;99741.22;5077388;28;8856;-55
2024/01/19 04:20:29;;;;;;;;;6.60;6.20;;;;;-1.16;83.68;99738.56;5077982;28;8828;-57
2024/01/19 04:22:56;;;;;;;;;9.00;9.00;;;;;-1.16;83.66;99742.94;5077466;28;8832;-56
2024/01/19 04:25:24;;;;;;;;;9.40;8.60;;;;;-1.18;83.89;99744.72;5078184;28;8832;-55
2024/01/19 04:27:51;;;;;;;;;7.00;7.00;;;;;-1.22;83.55;99756.22;5078820;28;8840;-56
2024/01/19 04:30:19;;;;;;;;;2.20;1.80;;;;;-1.27;83.81;99753.78;5079368;28;8845;-55
2024/01/19 04:32:46;;;;;;;;;6.40;6.00;;;;;-1.33;83.61;99766.16;5078704;28;8813;-58
2024/01/19 04:35:15;;;;;;;;;9.00;8.20;;;;;-1.37;83.63;99767.19;5078424;28;8832;-56
2024/01/19 04:37:42;;;;;;;;;6.00;4.60;;;;;-1.41;84.20;99773.41;5078554;28;8982;-57
2024/01/19 04:40:10;;;;;;;;;8.60;8.60;;;;;-1.47;84.06;99765.78;5078628;28;9518;-56
2024/01/19 04:42:37;;;;;;;;;7.00;7.00;;;;;-1.49;83.90;99772.81;5078711;28;8846;-56
2024/01/19 04:45:05;;;;;;;;;6.00;5.60;;;;;-1.52;84.35;99775.56;5081926;28;8840;-56
2024/01/19 04:47:32;;;;;;;;;4.80;4.80;;;;;-1.55;84.07;99776.50;5097843;28;8864;-56
2024/01/19 04:50:00;;;;;;;;;11.20;10.00;;;;;-1.54;84.36;99777.34;5097984;28;8833;-59
2024/01/19 04:52:28;;;;;;;;;6.00;6.00;;;;;-1.55;84.74;99773.88;5095635;28;8845;-58
2024/01/19 04:54:55;;;;;;;;;9.00;8.20;;;;;-1.57;84.45;99777.44;5101792;28;8814;-56
2024/01/19 04:57:23;;;;;;;;;6.20;6.20;;;;;-1.58;84.39;99776.63;5097244;28;8903;-56
2024/01/19 04:59:51;;;;;;;;;6.20;5.20;;;;;-1.57;84.16;99775.72;5097503;28;8817;-58
2024/01/19 05:02:19;;;;;;;;;7.40;7.20;;;;;-1.57;84.78;99780.06;5097186;28;8822;-58
2024/01/19 05:04:46;;;;;;;;;4.20;4.20;;;;;-1.55;84.50;99791.28;5095937;28;8842;-59
2024/01/19 05:07:14;;;;;;;;;7.00;6.60;;;;;-1.51;84.62;99787.69;5097687;28;8826;-57
2024/01/19 05:09:41;;;;;;;;;2.80;1.40;;;;;-1.49;84.58;99799.78;5098063;28;8916;-58
2024/01/19 05:12:09;;;;;;;;;9.40;9.00;;;;;-1.41;84.77;99808.22;5097552;28;8829;-59
2024/01/19 05:14:37;;;;;;;;;4.00;4.00;;;;;-1.33;84.99;99814.03;5097378;28;8857;-59
2024/01/19 05:17:04;;;;;;;;;7.20;5.60;;;;;-1.26;83.96;99814.66;5097490;28;8860;-56
2024/01/19 05:19:32;;;;;;;;;8.00;6.20;;;;;-1.21;84.67;99824.03;5097251;28;8834;-57
2024/01/19 05:21:59;;;;;;;;;6.00;6.00;;;;;-1.13;84.15;99821.19;5097319;28;8822;-58
2024/01/19 05:24:27;;;;;;;;;7.00;7.00;;;;;-1.07;84.23;99827.03;5100508;28;9562;-58
2024/01/19 05:26:54;;;;;;;;;3.40;3.00;;;;;-0.97;84.09;99838.00;5096053;28;8814;-58
2024/01/19 05:29:22;;;;;;;;;3.60;3.60;;;;;-0.93;84.47;99839.63;5095151;28;8968;-58
2024/01/19 05:31:50;;;;;;;;;4.00;4.00;;;;;-0.89;84.08;99846.44;5096002;28;8824;-56
2024/01/19 05:34:17;;;;;;;;;6.20;6.20;;;;;-0.83;83.82;99852.28;5094893;28;8856;-59
2024/01/19 05:36:45;;;;;;;;;7.80;7.80;;;;;-0.80;83.98;99856.56;5103565;28;8830;-58
2024/01/19 05:39:13;;;;;;;;;4.40;4.00;;;;;-0.79;83.81;99853.91;5095629;28;8825;-58
2024/01/19 05:41:41;;;;;;;;;4.80;4.00;;;;;-0.75;83.39;99849.41;5093974;28;8899;-58
2024/01/19 05:44:08;;;;;;;;;3.40;3.20;;;;;-0.72;84.13;99862.34;5099984;28;8814;-55
2024/01/19 05:46:36;;;;;;;;;4.80;4.80;;;;;-0.67;83.63;99869.16;5098319;28;9522;-59
2024/01/19 05:49:03;;;;;;;;;7.40;6.80;;;;;-0.62;83.92;99856.75;5101198;28;8949;-58
2024/01/19 05:51:31;;;;;;;;;6.00;3.00;;;;;-0.59;83.76;99856.66;5097934;28;8868;-59
2024/01/19 05:53:59;;;;;;;;;6.20;4.80;;;;;-0.55;83.70;99858.25;5075488;28;8840;-57
2024/01/19 05:56:27;;;;;;;;;3.80;3.80;;;;;-0.50;83.59;99860.69;5096697;28;8816;-56
2024/01/19 05:58:54;;;;;;;;;5.60;3.80;;;;;-0.48;83.63;99864.94;5104675;28;8810;-58
2024/01/19 06:01:22;;;;;;;;;7.40;5.40;;;;;-0.44;83.26;99866.56;5117263;28;8823;-58
2024/01/19 06:03:50;;;;;;;;;6.40;4.80;;;;;-0.44;83.56;99861.34;5103065;28;8814;-58
2024/01/19 06:06:17;;;;;;;;;6.00;5.60;;;;;-0.43;83.33;99868.25;5096772;28;8826;-59
2024/01/19 06:08:45;;;;;;;;;4.00;3.20;;;;;-0.41;83.36;99870.78;5096672;28;8856;-58
2024/01/19 06:11:13;;;;;;;;;5.00;4.40;;;;;-0.42;84.05;99867.34;5096745;28;8810;-57
2024/01/19 06:13:40;;;;;;;;;5.20;5.20;;;;;-0.43;83.90;99872.63;5082493;28;8839;-57
2024/01/19 06:16:08;;;;;;;;;3.80;3.80;;;;;-0.44;83.93;99874.41;5106111;28;8832;-58
2024/01/19 06:18:35;;;;;;;;;0.60;0.60;;;;;-0.42;83.61;99876.94;5107054;28;8810;-55
2024/01/19 06:21:03;;;;;;;;;3.00;3.00;;;;;-0.42;83.83;99884.78;5095233;28;8867;-56
2024/01/19 06:23:31;;;;;;;;;5.20;5.20;;;;;-0.44;83.94;99889.22;5096056;28;8959;-56
2024/01/19 06:25:59;;;;;;;;;4.40;4.00;;;;;-0.47;84.27;99882.34;5094257;28;8834;-58
2024/01/19 06:28:27;;;;;;;;;6.60;5.60;;;;;-0.46;84.10;99889.28;5095350;28;8968;-59
2024/01/19 06:30:54;;;;;;;;;6.80;6.80;;;;;-0.45;84.04;99900.59;5095656;28;8810;-58
2024/01/19 06:33:22;;;;;;;;;2.60;2.60;;;;;-0.47;83.88;99910.28;5095913;28;8822;-56
2024/01/19 06:35:49;;;;;;;;;6.00;5.20;;;;;-0.49;83.92;99912.06;5095307;28;8941;-55
2024/01/19 06:38:17;;;;;;;;;6.40;4.60;;;;;-0.54;84.33;99904.38;5094770;28;8833;-56
2024/01/19 06:40:45;;;;;;;;;4.40;4.40;;;;;-0.57;84.17;99908.88;5093535;28;8829;-56
2024/01/19 06:43:12;;;;;;;;;2.60;2.60;;;;;-0.58;84.40;99908.03;5094761;28;8834;-59
2024/01/19 06:45:40;;;;;;;;;6.40;5.20;;;;;-0.59;84.41;99910.69;5094368;28;8826;-58
2024/01/19 06:48:07;;;;;;;;;6.40;6.20;;;;;-0.62;83.89;99913.44;5094847;28;8842;-55
2024/01/19 06:50:35;;;;;;;;;2.20;2.20;;;;;-0.64;84.53;99912.59;5094823;28;8837;-59
2024/01/19 06:53:06;;;;;;;;;5.20;5.20;;;;;-0.69;84.61;99917.16;5095302;28;8983;-58
2024/01/19 06:55:34;;;;;;;;;6.80;6.80;;;;;-0.73;84.35;99921.63;5094760;28;8952;-58
2024/01/19 06:58:01;;;;;;;;;6.20;5.60;;;;;-0.73;85.03;99926.88;5094343;28;8863;-57
2024/01/19 07:00:29;;;;;;;;;0.00;0.00;;;;;-0.70;85.15;99941.59;5093715;28;8862;-58
2024/01/19 07:02:56;;;;;;;;;4.80;3.00;;;;;-0.66;85.16;99936.19;5093834;28;8838;-58
2024/01/19 07:05:24;;;;;;;;;3.80;3.80;;;;;-0.60;84.60;99938.59;5093669;28;8825;-58
2024/01/19 07:07:52;;;;;;;;;7.80;6.80;;;;;-0.54;84.83;99950.59;5093711;28;8838;-57
2024/01/19 07:10:23;;;;;;;;;6.60;4.20;;;;;-0.49;84.53;99953.91;5093540;28;8838;-58
2024/01/19 07:12:51;;;;;;;;;4.00;3.60;;;;;-0.45;85.14;99955.50;5093073;28;8834;-58
2024/01/19 07:15:19;;;;;;;;;15.60;12.20;;;;;-0.43;84.57;99954.56;5093421;28;8818;-58
2024/01/19 07:17:47;;;;;;;;;3.80;3.00;;;;;-0.46;84.19;99952.03;5093255;28;8842;-58
2024/01/19 07:20:15;;;;;;;;;4.40;1.80;;;;;-0.51;84.83;99959.19;5093101;28;8826;-58
2024/01/19 07:22:42;;;;;;;;;9.60;8.80;;;;;-0.57;84.30;99964.63;5093985;28;8822;-58
2024/01/19 07:25:10;;;;;;;;;6.00;4.00;;;;;-0.61;84.50;99964.78;5094374;28;8832;-58
2024/01/19 07:27:38;;;;;;;;;3.20;3.00;;;;;-0.64;84.51;99980.56;5094137;28;9815;-58
2024/01/19 07:30:06;;;;;;;;;3.60;3.60;;;;;-0.67;84.77;99978.94;5095146;28;8825;-58
2024/01/19 07:32:34;;;;;;;;;2.20;0.40;;;;;-0.67;84.68;99988.53;5095366;28;8865;-58
2024/01/19 07:35:21;;;;;;;;;3.20;3.20;;;;;-0.66;84.66;99991.09;5094980;28;8858;-58
2024/01/19 07:37:49;;;;;;;;;5.20;5.20;;;;;-0.62;85.31;99995.28;5094365;28;8818;-58
2024/01/19 07:40:17;;;;;;;;;2.60;2.60;;;;;-0.56;85.37;99994.22;5095402;28;8822;-56
2024/01/19 07:42:45;;;;;;;;;9.00;7.40;;;;;-0.52;84.90;100007.16;5094769;28;8937;-58
2024/01/19 07:45:12;;;;;;;;;6.20;5.60;;;;;-0.49;85.04;100006.19;5094651;28;8853;-58
2024/01/19 07:47:40;;;;;;;;;7.80;6.80;;;;;-0.47;84.50;100010.47;5094886;28;8850;-58
2024/01/19 07:50:10;;;;;;;;;6.80;5.80;;;;;-0.41;84.66;100012.00;5094925;28;8818;-58
2024/01/19 07:52:38;;;;;;;;;6.60;5.40;;;;;-0.33;84.45;100015.25;5094707;28;8826;-58
2024/01/19 07:55:06;;;;;;;;;3.60;3.20;;;;;-0.25;84.38;100026.28;5094860;28;8834;-58
2024/01/19 07:57:34;;;;;;;;;5.60;3.60;;;;;-0.18;84.74;100025.16;5094496;28;8863;-58
2024/01/19 08:00:02;;;;;;;;;8.20;7.00;;;;;-0.13;84.17;100035.38;5094933;28;8832;-58
2024/01/19 08:02:30;;;;;;;;;8.20;7.20;;;;;-0.08;83.59;100037.00;5094787;28;8850;-58
2024/01/19 08:04:58;;;;;;;;;6.20;6.20;;;;;-0.05;84.14;100035.13;5094985;28;8814;-58
2024/01/19 08:07:26;;;;;;;;;4.40;4.40;;;;;-0.03;83.89;100040.31;5094303;28;8883;-57
2024/01/19 08:09:54;;;;;;;;;8.60;5.60;;;;;-0.02;83.89;100048.97;5095130;28;8834;-58
2024/01/19 08:12:21;;;;;;;;;11.20;11.00;;;;;0.01;84.16;100042.78;5094702;28;8913;-57
2024/01/19 08:14:50;;;;;;;;;7.80;7.00;;;;;0.02;83.81;100045.31;5094320;28;8845;-57
2024/01/19 08:17:18;;;;;;;;;10.80;9.60;;;;;0.04;83.87;100058.34;5093770;28;8854;-56
2024/01/19 08:19:45;;;;;;;;;5.20;5.20;;;;;0.07;83.94;100066.09;5094918;28;8814;-58
2024/01/19 08:22:13;;;;;;;;;6.80;4.40;;;;;0.10;83.80;100069.44;5094378;28;8842;-57
2024/01/19 08:24:41;;;;;;;;;6.20;5.20;;;;;0.13;84.07;100074.59;5094058;28;8826;-58
2024/01/19 08:27:08;;;;;;;;;5.80;5.60;;;;;0.15;84.50;100078.00;5093781;28;8877;-58
2024/01/19 08:29:36;;;;;;;;;9.40;7.00;;;;;0.18;83.63;100077.88;5093991;28;8833;-60
2024/01/19 08:32:04;;;;;;;;;9.00;9.00;;;;;0.22;83.71;100078.63;5093833;28;8849;-58
2024/01/19 08:34:31;;;;;;;;;8.20;7.20;;;;;0.26;83.94;100090.72;5093436;28;8829;-59
2024/01/19 08:36:59;;;;;;;;;13.40;9.40;;;;;0.29;83.97;100082.72;5093021;28;8834;-59
2024/01/19 08:39:27;;;;;;;;;12.00;10.20;;;;;0.31;83.42;100089.63;5093464;28;8848;-59
2024/01/19 08:41:55;;;;;;;;;13.80;12.80;;;;;0.33;83.57;100098.28;5093593;28;8857;-58
2024/01/19 08:44:23;;;;;;;;;7.00;7.00;;;;;0.36;83.85;100092.94;5093001;28;8845;-59
2024/01/19 08:46:50;;;;;;;;;11.60;9.60;;;;;0.40;83.69;100097.16;5092143;28;8997;-58
2024/01/19 08:49:18;;;;;;;;;6.60;6.40;;;;;0.43;83.32;100099.66;5092837;28;8934;-57
2024/01/19 08:51:47;;;;;;;;;8.40;6.00;;;;;0.46;83.36;100096.94;5096677;28;9240;-56
2024/01/19 08:54:16;;;;;;;;;10.80;5.60;;;;;0.50;83.74;100098.53;5096077;28;9495;-57
2024/01/19 08:56:43;;;;;;;;;9.80;8.60;;;;;0.53;83.58;100111.50;5096355;28;8829;-57
2024/01/19 08:59:22;;;;;;;;;14.60;11.60;;;;;0.56;83.27;100114.03;5096438;28;8834;-56
2024/01/19 09:01:50;;;;;;;;;9.80;9.20;;;;;0.57;83.42;100110.50;5097169;28;8956;-57
2024/01/19 09:04:19;;;;;;;;;6.80;6.40;;;;;0.61;83.43;100116.50;5096675;28;8826;-58
2024/01/19 09:06:47;;;;;;;;;8.40;7.00;;;;;0.62;83.79;100126.06;5095889;28;8845;-58
2024/01/19 09:09:15;;;;;;;;;7.80;7.80;;;;;0.65;83.39;100132.03;5096546;28;8826;-59
2024/01/19 09:11:42;;;;;;;;;10.00;9.20;;;;;0.70;83.57;100137.09;5097351;28;8814;-57
2024/01/19 09:14:11;;;;;;;;;10.60;8.60;;;;;0.77;83.45;100142.03;5096278;28;8826;-57
2024/01/19 09:16:39;;;;;;;;;10.40;8.20;;;;;0.87;83.63;100142.56;5096087;28;8838;-59
2024/01/19 09:19:07;;;;;;;;;3.00;1.80;;;;;0.97;83.59;100144.78;5095650;28;8818;-59
2024/01/19 09:21:35;;;;;;;;;8.40;6.00;;;;;1.04;83.50;100145.38;5095242;28;8960;-58
2024/01/19 09:24:02;;;;;;;;;10.40;9.60;;;;;1.04;83.01;100162.00;5095876;28;8830;-56
2024/01/19 09:26:30;;;;;;;;;7.80;7.00;;;;;1.07;83.28;100164.47;5095379;28;8830;-58
2024/01/19 09:28:58;;;;;;;;;6.80;6.00;;;;;1.18;83.12;100164.94;5095732;28;8846;-56
2024/01/19 09:31:26;;;;;;;;;9.40;9.40;;;;;1.29;82.92;100168.00;5096000;28;9557;-55
2024/01/19 09:33:53;;;;;;;;;12.60;10.00;;;;;1.36;82.74;100174.72;5095981;28;8822;-56
2024/01/19 09:36:21;;;;;;;;;6.60;5.60;;;;;1.38;82.58;100175.50;5095519;28;8822;-58
2024/01/19 09:38:49;;;;;;;;;11.40;10.20;;;;;1.36;82.59;100177.34;5094830;28;8829;-56
2024/01/19 09:41:17;;;;;;;;;9.40;6.00;;;;;1.33;82.95;100182.72;5095066;28;8883;-57
2024/01/19 09:43:45;;;;;;;;;10.40;9.20;;;;;1.25;82.58;100192.66;5095487;28;8830;-59
2024/01/19 09:46:12;;;;;;;;;4.80;3.40;;;;;1.21;82.70;100195.44;5095935;28;8838;-58
2024/01/19 09:48:40;;;;;;;;;10.40;10.40;;;;;1.21;82.97;100206.78;5096032;28;9794;-55
2024/01/19 09:51:08;;;;;;;;;5.20;4.00;;;;;1.21;83.04;100206.78;5096841;28;8968;-57
2024/01/19 09:53:35;;;;;;;;;9.40;8.20;;;;;1.22;83.23;100207.63;5096874;28;8826;-58
2024/01/19 09:56:03;;;;;;;;;7.00;7.00;;;;;1.23;82.97;100218.03;5096590;28;8818;-58
2024/01/19 09:58:31;;;;;;;;;7.40;7.40;;;;;1.29;82.67;100219.59;5096695;28;8826;-58
2024/01/19 10:00:59;;;;;;;;;8.20;8.20;;;;;1.38;83.25;100214.00;5096396;28;8828;-58
2024/01/19 10:03:27;;;;;;;;;7.80;7.80;;;;;1.53;82.51;100213.41;5096277;28;8834;-59
2024/01/19 10:05:55;;;;;;;;;9.00;6.60;;;;;1.69;82.25;100219.75;5096217;28;8972;-58
2024/01/19 10:08:22;;;;;;;;;9.60;8.60;;;;;1.86;82.17;100212.94;5096056;28;8926;-58
2024/01/19 10:10:50;;;;;;;;;8.20;6.60;;;;;2.13;82.05;100216.22;5096305;28;8906;-58
2024/01/19 10:13:18;;;;;;;;;8.80;7.60;;;;;2.29;81.75;100226.00;5095904;28;8838;-59
2024/01/19 10:15:45;;;;;;;;;6.60;6.60;;;;;2.29;80.91;100220.75;5095570;28;8848;-57
2024/01/19 10:18:13;;;;;;;;;6.80;6.80;;;;;2.21;81.15;100225.47;5095881;28;8887;-58
2024/01/19 10:20:42;;;;;;;;;10.80;7.80;;;;;2.16;81.33;100232.69;5096017;28;9484;-59
2024/01/19 10:23:10;;;;;;;;;7.80;7.00;;;;;2.12;81.99;100238.97;5094675;28;8897;-58
2024/01/19 10:25:38;;;;;;;;;10.80;9.60;;;;;2.21;81.98;100240.38;5094575;28;8860;-59
2024/01/19 10:28:06;;;;;;;;;6.00;4.80;;;;;2.24;81.96;100238.50;5095061;28;8864;-57
2024/01/19 10:30:34;;;;;;;;;4.00;3.00;;;;;2.23;81.05;100239.41;5094515;28;8822;-56
2024/01/19 10:33:02;;;;;;;;;7.40;7.40;;;;;2.29;81.79;100249.63;5094173;28;8840;-56
2024/01/19 10:35:30;;;;;;;;;7.00;6.40;;;;;2.46;81.27;100251.56;5094327;28;8956;-57
2024/01/19 10:37:57;;;;;;;;;2.60;1.40;;;;;2.82;81.27;100256.13;5094665;28;8834;-59
2024/01/19 10:40:26;;;;;;;;;10.80;7.80;;;;;3.09;79.99;100252.28;5094524;28;8852;-58
2024/01/19 10:42:56;;;;;;;;;9.20;9.20;;;;;3.22;80.36;100257.84;5094547;28;8826;-58
2024/01/19 10:45:24;;;;;;;;;3.60;3.60;;;;;3.51;79.68;100242.44;5094913;28;8830;-58
2024/01/19 10:47:51;;;;;;;;;9.80;7.40;;;;;3.60;78.92;100247.28;5095054;28;8915;-58
2024/01/19 10:50:19;;;;;;;;;7.00;3.20;;;;;3.57;79.14;100260.56;5094788;28;8822;-58
2024/01/19 10:52:47;;;;;;;;;10.80;8.80;;;;;3.64;79.35;100254.09;5094924;28;8845;-59
2024/01/19 10:55:13;;;;;;;;;8.20;8.20;;;;;3.69;79.64;100254.75;5094423;28;8961;-57
2024/01/19 10:57:41;;;;;;;;;7.80;7.80;;;;;3.72;79.48;100255.47;5094243;28;8832;-59
2024/01/19 11:00:09;;;;;;;;;7.00;6.00;;;;;3.73;79.07;100270.31;5093995;28;8845;-58
2024/01/19 11:02:37;;;;;;;;;6.00;6.00;;;;;3.60;79.26;100270.97;5094595;28;8836;-57
2024/01/19 11:05:05;;;;;;;;;6.60;6.40;;;;;3.51;79.85;100263.50;5093808;28;8810;-56
2024/01/19 11:07:33;;;;;;;;;4.00;4.00;;;;;3.32;79.43;100267.88;5094168;28;8992;-59
2024/01/19 11:10:01;;;;;;;;;9.40;9.00;;;;;3.17;79.90;100273.00;5093049;28;8849;-59
2024/01/19 11:12:28;;;;;;;;;4.00;3.40;;;;;3.23;80.28;100278.81;5092527;28;8834;-59
2024/01/19 11:14:56;;;;;;;;;8.40;7.00;;;;;3.23;80.57;100276.19;5092618;28;8846;-57
2024/01/19 11:17:24;;;;;;;;;9.20;5.20;;;;;3.30;80.40;100266.25;5093086;28;8857;-57
2024/01/19 11:19:52;;;;;;;;;4.80;4.80;;;;;3.39;79.91;100268.47;5092753;28;8826;-58
2024/01/19 11:22:20;;;;;;;;;3.80;3.80;;;;;3.39;80.28;100265.84;5093367;28;8830;-58
2024/01/19 11:24:47;;;;;;;;;6.80;5.40;;;;;3.22;80.12;100258.72;5094251;28;8830;-57
2024/01/19 11:27:15;;;;;;;;;7.00;7.00;;;;;2.99;80.18;100264.13;5095139;28;8822;-59
2024/01/19 11:29:44;;;;;;;;;5.60;4.20;;;;;2.76;80.49;100255.53;5094016;28;8853;-59
2024/01/19 11:32:11;;;;;;;;;8.60;8.60;;;;;2.79;80.66;100256.25;5094474;28;8907;-58
2024/01/19 11:34:39;;;;;;;;;10.40;9.20;;;;;3.45;80.03;100255.88;5093250;28;8833;-59
2024/01/19 11:37:07;;;;;;;;;9.60;7.80;;;;;4.25;78.51;100237.09;5093311;28;8926;-57
2024/01/19 11:39:33;;;;;;;;;6.60;6.40;;;;;4.79;76.89;100240.41;5093028;28;8840;-59
2024/01/19 11:42:03;;;;;;;;;6.00;5.20;;;;;5.19;76.45;100244.47;5093292;28;8970;-57
2024/01/19 11:44:31;;;;;;;;;6.00;5.20;;;;;5.52;75.77;100237.38;5093422;28;8960;-57
2024/01/19 11:46:59;;;;;;;;;5.20;4.00;;;;;5.92;75.10;100235.13;5093648;28;9614;-59